createdAt,value
2019-02-12T00:01:30.350Z,80.96
2019-02-12T00:04:01.712Z,81.70
2019-02-12T00:06:34.153Z,82.46
2019-02-12T00:09:07.529Z,82.11
2019-02-12T00:11:39.123Z,83.30
2019-02-12T00:14:10.556Z,83.67
2019-02-12T00:16:42.263Z,83.67
2019-02-12T00:19:13.527Z,82.60
2019-02-12T00:21:45.215Z,82.60
2019-02-12T00:24:17.055Z,81.26
2019-02-12T00:26:48.623Z,81.26
2019-02-12T00:29:20.611Z,81.59
2019-02-12T00:31:52.093Z,82.47
2019-02-12T00:34:23.879Z,81.73
2019-02-12T00:36:55.446Z,81.69
2019-02-12T00:39:27.435Z,81.45
2019-02-12T00:41:58.916Z,80.99
2019-02-12T00:44:30.297Z,80.99
2019-02-12T00:47:01.809Z,81.10
2019-02-12T00:49:34.316Z,81.10
2019-02-12T00:52:05.735Z,81.33
2019-02-12T00:54:37.383Z,81.34
2019-02-12T00:57:08.786Z,80.66
2019-02-12T00:59:40.016Z,80.65
2019-02-12T01:02:11.344Z,80.91
2019-02-12T01:04:43.428Z,80.91
2019-02-12T01:07:15.255Z,80.44
2019-02-12T01:09:46.702Z,80.90
2019-02-12T01:12:18.502Z,80.90
2019-02-12T01:14:50.141Z,81.76
2019-02-12T01:17:21.565Z,81.76
2019-02-12T01:19:52.835Z,82.23
2019-02-12T01:22:24.581Z,81.96
2019-02-12T01:24:56.145Z,81.96
2019-02-12T01:27:27.562Z,80.72
2019-02-12T01:29:59.143Z,80.72
2019-02-12T01:32:30.998Z,80.94
2019-02-12T01:35:02.496Z,81.16
2019-02-12T01:37:34.068Z,81.01
2019-02-12T01:40:05.780Z,81.01
2019-02-12T01:42:39.154Z,81.69
2019-02-12T01:45:11.887Z,75.15
2019-02-12T01:47:42.888Z,71.99
2019-02-12T01:50:15.317Z,71.18
2019-02-12T01:55:16.329Z,70.82
2019-02-12T01:57:47.888Z,70.82
2019-02-12T02:00:19.201Z,70.58
2019-02-12T02:02:50.488Z,70.58
2019-02-12T02:05:21.791Z,71.39
2019-02-12T02:07:53.551Z,71.39
2019-02-12T02:10:25.047Z,70.32
2019-02-12T02:12:56.665Z,70.40
2019-02-12T02:15:28.506Z,70.40
2019-02-12T02:18:00.289Z,70.23
2019-02-12T02:20:31.412Z,70.08
2019-02-12T02:23:02.522Z,70.11
2019-02-12T02:25:33.716Z,69.99
2019-02-12T02:28:04.934Z,69.99
2019-02-12T02:30:36.151Z,70.04
2019-02-12T02:33:07.367Z,69.96
2019-02-12T02:35:39.701Z,69.88
2019-02-12T02:38:11.830Z,70.63
2019-02-12T02:40:43.059Z,71.43
2019-02-12T02:43:14.545Z,71.68
2019-02-12T02:45:46.235Z,71.10
2019-02-12T02:48:18.091Z,70.30
2019-02-12T02:50:49.533Z,70.05
2019-02-12T02:53:20.642Z,72.00
2019-02-12T02:55:52.011Z,70.59
2019-02-12T02:58:23.269Z,70.74
2019-02-12T03:00:54.353Z,70.74
2019-02-12T03:03:25.836Z,70.69
2019-02-12T03:05:57.122Z,70.68
2019-02-12T03:08:28.398Z,72.04
2019-02-12T03:10:59.669Z,70.56
2019-02-12T03:13:30.737Z,70.28
2019-02-12T03:16:02.338Z,69.82
2019-02-12T03:18:33.831Z,69.67
2019-02-12T03:21:05.328Z,69.77
2019-02-12T03:23:36.820Z,69.77
2019-02-12T03:26:08.085Z,69.50
2019-02-12T03:28:39.192Z,68.96
2019-02-12T03:31:12.570Z,68.71
2019-02-12T03:33:43.699Z,68.65
2019-02-12T03:36:15.848Z,68.53
2019-02-12T03:38:47.291Z,68.88
2019-02-12T03:41:18.819Z,69.03
2019-02-12T03:43:50.298Z,69.39
2019-02-12T03:46:22.213Z,68.78
2019-02-12T03:48:53.703Z,68.77
2019-02-12T03:51:25.363Z,69.10
2019-02-12T03:53:56.717Z,68.87
2019-02-12T03:56:28.088Z,68.87
2019-02-12T03:58:59.181Z,69.04
2019-02-12T04:01:30.468Z,69.12
2019-02-12T04:04:01.920Z,69.12
2019-02-12T04:06:33.501Z,69.52
2019-02-12T04:09:05.976Z,69.52
2019-02-12T04:11:36.955Z,69.52
2019-02-12T04:14:08.740Z,69.02
2019-02-12T04:16:41.121Z,69.02
2019-02-12T04:19:12.247Z,69.52
2019-02-12T04:21:44.343Z,69.28
2019-02-12T04:24:15.936Z,69.38
2019-02-12T04:26:47.773Z,69.62
2019-02-12T04:29:20.075Z,68.94
2019-02-12T04:31:51.602Z,68.94
2019-02-12T04:34:22.982Z,68.74
2019-02-12T04:36:54.553Z,67.95
2019-02-12T04:39:26.199Z,67.28
2019-02-12T04:41:57.618Z,67.28
2019-02-12T04:44:29.008Z,66.21
2019-02-12T04:47:01.412Z,64.27
2019-02-12T04:49:32.778Z,64.27
2019-02-12T04:52:04.920Z,63.28
2019-02-12T04:54:36.345Z,63.28
2019-02-12T04:57:07.795Z,62.50
2019-02-12T04:59:39.617Z,61.48
2019-02-12T05:02:11.500Z,61.48
2019-02-12T05:04:43.398Z,61.64
2019-02-12T05:07:15.330Z,61.99
2019-02-12T05:09:48.628Z,60.72
2019-02-12T05:12:21.654Z,63.09
2019-02-12T05:14:53.044Z,60.96
2019-02-12T05:17:24.596Z,61.17
2019-02-12T05:19:56.458Z,59.38
2019-02-12T05:22:28.483Z,58.51
2019-02-12T05:24:59.857Z,58.51
2019-02-12T05:27:31.683Z,58.76
2019-02-12T05:30:03.180Z,58.76
2019-02-12T05:32:35.732Z,57.78
2019-02-12T05:35:08.206Z,58.30
2019-02-12T05:37:40.744Z,58.46
2019-02-12T05:40:16.030Z,58.83
2019-02-12T05:42:47.602Z,58.05
2019-02-12T05:45:18.997Z,57.28
2019-02-12T05:47:50.771Z,56.28
2019-02-12T05:50:22.521Z,56.28
2019-02-12T05:52:55.114Z,56.36
2019-02-12T05:55:27.090Z,53.80
2019-02-12T05:57:58.590Z,55.37
2019-02-12T06:00:31.571Z,55.45
2019-02-12T06:03:04.550Z,54.92
2019-02-12T06:05:35.959Z,54.23
2019-02-12T06:08:08.008Z,54.23
2019-02-12T06:10:40.180Z,53.36
2019-02-12T06:13:11.741Z,53.36
2019-02-12T06:15:43.392Z,52.90
2019-02-12T06:18:14.602Z,52.90
2019-02-12T06:20:46.681Z,52.35
2019-02-12T06:23:18.401Z,52.64
2019-02-12T06:25:50.083Z,54.50
2019-02-12T06:28:21.646Z,52.67
2019-02-12T06:30:53.939Z,51.66
2019-02-12T06:33:25.605Z,51.66
2019-02-12T06:35:57.290Z,51.14
2019-02-12T06:38:28.907Z,51.14
2019-02-12T06:41:01.716Z,51.39
2019-02-12T06:43:35.447Z,51.03
2019-02-12T06:46:07.158Z,50.87
2019-02-12T06:48:38.723Z,50.17
2019-02-12T06:51:10.207Z,49.35
2019-02-12T06:53:42.063Z,49.94
2019-02-12T06:56:13.799Z,49.94
2019-02-12T06:58:46.343Z,49.94
2019-02-12T07:01:17.525Z,50.46
2019-02-12T07:04:09.564Z,50.44
2019-02-12T07:07:30.402Z,50.64
2019-02-12T07:10:06.808Z,50.64
2019-02-12T07:13:13.138Z,50.65
2019-02-12T07:16:15.940Z,50.65
2019-02-12T07:19:15.322Z,49.59
2019-02-12T07:22:32.702Z,49.84
2019-02-12T07:25:45.600Z,49.84
2019-02-12T07:28:50.920Z,50.24
2019-02-12T07:32:02.588Z,49.96
2019-02-12T07:34:52.671Z,49.96
2019-02-12T07:38:16.910Z,50.03
2019-02-12T07:41:20.022Z,50.03
2019-02-12T07:44:31.142Z,50.48
2019-02-12T07:47:38.337Z,49.62
2019-02-12T07:51:01.174Z,50.41
2019-02-12T07:54:12.584Z,50.41
2019-02-12T07:57:36.778Z,49.25
2019-02-12T08:00:59.659Z,49.25
2019-02-12T08:04:17.635Z,49.93
2019-02-12T08:07:36.779Z,48.55
2019-02-12T08:10:54.326Z,48.55
2019-02-12T08:13:50.043Z,49.69
2019-02-12T08:16:38.458Z,49.69
2019-02-12T08:20:03.468Z,48.84
2019-02-12T08:23:10.167Z,46.19
2019-02-12T08:26:14.218Z,46.91
2019-02-12T08:29:26.216Z,46.91
2019-02-12T08:32:29.661Z,46.90
2019-02-12T08:35:59.301Z,45.25
2019-02-12T08:38:44.064Z,45.25
2019-02-12T08:41:39.832Z,45.17
2019-02-12T08:44:30.320Z,45.17
2019-02-12T08:47:58.212Z,44.88
2019-02-12T08:55:06.936Z,45.98
2019-02-12T08:58:26.549Z,45.68
2019-02-12T09:01:15.540Z,45.68
2019-02-12T09:04:26.591Z,44.62
2019-02-12T09:07:43.841Z,44.62
2019-02-12T09:10:42.455Z,44.47
2019-02-12T09:13:36.776Z,44.47
2019-02-12T09:16:58.783Z,45.37
2019-02-12T09:20:26.050Z,44.61
2019-02-12T09:24:00.162Z,44.82
2019-02-12T09:26:59.726Z,44.61
2019-02-12T09:29:51.834Z,45.60
2019-02-12T09:33:18.534Z,44.87
2019-02-12T09:36:42.039Z,45.11
2019-02-12T09:39:51.874Z,45.11
2019-02-12T09:42:59.476Z,45.72
2019-02-12T09:46:11.304Z,46.30
2019-02-12T09:49:02.928Z,46.30
2019-02-12T09:51:41.543Z,46.70
2019-02-12T09:54:38.280Z,46.70
2019-02-12T09:57:57.041Z,46.29
2019-02-12T10:01:01.936Z,46.43
2019-02-12T10:04:14.339Z,46.07
2019-02-12T10:07:26.470Z,46.07
2019-02-12T10:10:24.296Z,45.81
2019-02-12T10:13:31.887Z,45.81
2019-02-12T10:16:32.953Z,45.73
2019-02-12T10:19:22.355Z,45.80
2019-02-12T10:22:35.248Z,45.80
2019-02-12T10:25:20.056Z,46.10
2019-02-12T10:28:17.617Z,46.10
2019-02-12T10:31:28.345Z,45.59
2019-02-12T10:34:00.222Z,45.59
2019-02-12T10:36:31.527Z,47.11
2019-02-12T10:39:03.042Z,47.11
2019-02-12T10:41:36.214Z,46.82
2019-02-12T10:44:08.732Z,46.82
2019-02-12T10:46:40.326Z,46.06
2019-02-12T10:49:11.867Z,47.22
2019-02-12T10:51:43.075Z,47.22
2019-02-12T10:54:14.862Z,47.25
2019-02-12T10:56:46.160Z,47.25
2019-02-12T10:59:17.513Z,47.45
2019-02-12T11:01:49.166Z,47.45
2019-02-12T11:04:21.615Z,47.25
2019-02-12T11:06:55.528Z,47.61
2019-02-12T11:09:30.271Z,47.61
2019-02-12T11:12:01.553Z,47.58
2019-02-12T11:14:33.349Z,47.81
2019-02-12T11:17:04.663Z,47.75
2019-02-12T11:19:36.330Z,48.72
2019-02-12T11:22:08.329Z,47.81
2019-02-12T11:24:39.881Z,48.00
2019-02-12T11:27:11.196Z,48.00
2019-02-12T11:29:43.164Z,48.81
2019-02-12T11:32:14.646Z,48.81
2019-02-12T11:34:46.245Z,48.52
2019-02-12T11:37:17.501Z,48.93
2019-02-12T11:39:49.195Z,49.33
2019-02-12T11:42:20.420Z,49.33
2019-02-12T11:44:52.049Z,49.63
2019-02-12T11:47:23.474Z,49.67
2019-02-12T11:49:55.174Z,50.48
2019-02-12T11:52:26.682Z,50.11
2019-02-12T11:54:58.146Z,50.30
2019-02-12T11:57:29.553Z,50.30
2019-02-12T12:00:01.141Z,50.69
2019-02-12T12:02:41.804Z,50.69
2019-02-12T12:05:08.629Z,49.76
2019-02-12T12:07:40.676Z,49.93
2019-02-12T12:10:12.534Z,49.74
2019-02-12T12:12:44.075Z,49.74
2019-02-12T12:15:15.859Z,49.84
2019-02-12T12:17:47.683Z,50.41
2019-02-12T12:20:19.221Z,50.41
2019-02-12T12:22:50.924Z,51.66
2019-02-12T12:25:22.136Z,52.26
2019-02-12T12:27:53.597Z,52.88
2019-02-12T12:30:25.192Z,52.88
2019-02-12T12:32:57.349Z,52.87
2019-02-12T12:35:28.650Z,53.24
2019-02-12T12:38:00.546Z,53.24
2019-02-12T12:40:32.169Z,53.48
2019-02-12T12:43:03.884Z,53.75
2019-02-12T12:45:35.529Z,54.47
2019-02-12T12:48:07.346Z,54.47
2019-02-12T12:50:38.791Z,54.91
2019-02-12T12:53:10.288Z,55.22
2019-02-12T12:55:41.749Z,54.76
2019-02-12T12:58:13.197Z,55.84
2019-02-12T13:00:44.441Z,55.28
2019-02-12T13:03:16.024Z,55.28
2019-02-12T13:05:49.732Z,55.66
2019-02-12T13:08:21.232Z,55.66
2019-02-12T13:10:55.481Z,56.41
2019-02-12T13:13:28.549Z,56.93
2019-02-12T13:16:00.221Z,56.93
2019-02-12T13:18:32.360Z,56.71
2019-02-12T13:21:04.404Z,57.27
2019-02-12T13:23:35.937Z,57.27
2019-02-12T13:26:07.375Z,58.05
2019-02-12T13:28:38.696Z,57.91
2019-02-12T13:31:09.920Z,57.91
2019-02-12T13:33:41.420Z,58.29
2019-02-12T13:36:14.198Z,58.91
2019-02-12T13:38:45.979Z,59.59
2019-02-12T13:41:17.657Z,58.85
2019-02-12T13:43:48.963Z,58.85
2019-02-12T13:46:20.702Z,59.30
2019-02-12T13:48:52.226Z,59.27
2019-02-12T13:51:23.750Z,59.27
2019-02-12T13:53:55.825Z,59.88
2019-02-12T13:56:27.338Z,60.31
2019-02-12T13:58:58.813Z,63.17
2019-02-12T14:01:30.423Z,62.19
2019-02-12T14:04:03.667Z,62.19
2019-02-12T14:06:37.491Z,60.89
2019-02-12T14:09:15.810Z,61.01
2019-02-12T14:11:48.858Z,61.01
2019-02-12T14:14:24.168Z,61.01
2019-02-12T14:17:03.152Z,60.99
2019-02-12T14:19:34.671Z,61.02
2019-02-12T14:22:06.095Z,62.18
2019-02-12T14:24:38.751Z,62.18
2019-02-12T14:27:10.211Z,62.67
2019-02-12T14:29:42.032Z,62.45
2019-02-12T14:32:13.176Z,62.22
2019-02-12T14:34:45.301Z,61.93
2019-02-12T14:37:17.011Z,62.36
2019-02-12T14:39:48.496Z,61.81
2019-02-12T14:42:20.144Z,61.81
2019-02-12T14:44:51.428Z,61.95
2019-02-12T14:47:22.600Z,62.48
2019-02-12T14:49:54.229Z,62.48
2019-02-12T14:52:25.353Z,61.62
2019-02-12T14:54:56.498Z,62.34
2019-02-12T14:57:27.892Z,61.49
2019-02-12T14:59:59.949Z,61.76
2019-02-12T15:02:31.915Z,61.96
2019-02-12T15:05:03.181Z,61.96
2019-02-12T15:07:34.757Z,61.90
2019-02-12T15:10:06.620Z,62.10
2019-02-12T15:12:38.019Z,62.06
2019-02-12T15:15:09.909Z,61.68
2019-02-12T15:17:41.417Z,61.68
2019-02-12T15:20:13.454Z,62.07
2019-02-12T15:22:45.093Z,63.15
2019-02-12T15:25:16.380Z,63.88
2019-02-12T15:27:48.198Z,64.01
2019-02-12T15:30:20.386Z,64.22
2019-02-12T15:32:51.897Z,64.22
2019-02-12T15:35:23.212Z,63.88
2019-02-12T15:37:54.379Z,63.76
2019-02-12T15:40:26.285Z,64.23
2019-02-12T15:42:57.720Z,63.73
2019-02-12T15:45:29.542Z,63.57
2019-02-12T15:48:00.980Z,63.57
2019-02-12T15:50:32.333Z,63.61
2019-02-12T15:53:03.650Z,63.72
2019-02-12T15:55:42.132Z,64.25
2019-02-12T15:58:08.084Z,67.06
2019-02-12T16:00:39.867Z,67.77
2019-02-12T16:03:12.493Z,67.77
2019-02-12T16:05:43.960Z,68.15
2019-02-12T16:08:15.369Z,68.15
2019-02-12T16:10:46.675Z,68.57
2019-02-12T16:13:18.147Z,68.37
2019-02-12T16:15:49.748Z,68.33
2019-02-12T16:18:22.916Z,68.94
2019-02-12T16:20:55.108Z,68.94
2019-02-12T16:23:26.689Z,69.37
2019-02-12T16:25:59.538Z,68.62
2019-02-12T16:28:31.128Z,68.62
2019-02-12T16:31:02.755Z,69.36
2019-02-12T16:33:34.623Z,69.36
2019-02-12T16:36:06.459Z,69.53
2019-02-12T16:38:38.433Z,69.60
2019-02-12T16:41:09.986Z,69.87
2019-02-12T16:43:41.430Z,70.14
2019-02-12T16:46:19.243Z,70.14
2019-02-12T16:48:52.174Z,70.58
2019-02-12T16:51:25.949Z,70.25
2019-02-12T16:54:00.258Z,70.25
2019-02-12T16:56:34.581Z,70.91
2019-02-12T16:59:11.511Z,70.79
2019-02-12T17:01:44.795Z,70.80
2019-02-12T17:04:16.466Z,70.80
2019-02-12T17:06:48.626Z,70.73
2019-02-12T17:09:20.195Z,70.79
2019-02-12T17:11:52.319Z,70.79
2019-02-12T17:14:23.790Z,71.60
2019-02-12T17:16:55.184Z,71.60
2019-02-12T17:19:26.839Z,71.73
2019-02-12T17:21:58.667Z,71.42
2019-02-12T17:24:30.830Z,71.29
2019-02-12T17:27:02.282Z,71.29
2019-02-12T17:29:34.947Z,71.51
2019-02-12T17:32:06.606Z,71.60
2019-02-12T17:34:37.961Z,72.09
2019-02-12T17:37:09.716Z,71.94
2019-02-12T17:39:41.545Z,71.97
2019-02-12T17:42:13.053Z,71.97
2019-02-12T17:44:44.568Z,71.90
2019-02-12T17:47:16.262Z,71.90
2019-02-12T17:49:47.873Z,71.58
2019-02-12T17:52:19.865Z,71.69
2019-02-12T17:54:51.232Z,71.69
2019-02-12T17:57:22.738Z,71.91
2019-02-12T17:59:54.097Z,72.04
2019-02-12T18:02:25.587Z,72.04
2019-02-12T18:04:57.098Z,71.84
2019-02-12T18:07:28.602Z,71.92
2019-02-12T18:10:00.109Z,72.24
2019-02-12T18:12:31.941Z,72.24
2019-02-12T18:15:03.112Z,72.49
2019-02-12T18:17:34.410Z,71.70
2019-02-12T18:20:05.961Z,72.11
2019-02-12T18:22:37.580Z,72.11
2019-02-12T18:25:09.683Z,71.97
2019-02-12T18:27:41.268Z,71.72
2019-02-12T18:30:14.398Z,71.68
2019-02-12T18:32:46.185Z,71.74
2019-02-12T18:35:17.430Z,71.95
2019-02-12T18:37:48.816Z,71.95
2019-02-12T18:40:20.340Z,71.19
2019-02-12T18:42:51.635Z,71.19
2019-02-12T18:45:22.796Z,71.34
2019-02-12T18:47:54.076Z,71.40
2019-02-12T18:50:25.568Z,71.40
2019-02-12T18:52:57.099Z,70.25
2019-02-12T18:55:28.461Z,70.25
2019-02-12T18:57:59.959Z,70.29
2019-02-12T19:00:31.362Z,70.30
2019-02-12T19:03:02.526Z,70.64
2019-02-12T19:05:33.808Z,70.66
2019-02-12T19:08:05.815Z,70.96
2019-02-12T19:10:37.736Z,71.37
2019-02-12T19:13:09.171Z,71.54
2019-02-12T19:15:40.427Z,72.01
2019-02-12T19:18:15.200Z,72.10
2019-02-12T19:20:46.674Z,72.18
2019-02-12T19:23:18.343Z,72.13
2019-02-12T19:25:49.708Z,72.20
2019-02-12T19:28:21.386Z,72.20
2019-02-12T19:30:52.861Z,72.74
2019-02-12T19:33:26.030Z,72.78
2019-02-12T19:35:57.685Z,72.78
2019-02-12T19:38:29.243Z,73.37
2019-02-12T19:41:00.801Z,73.37
2019-02-12T19:43:32.094Z,72.95
2019-02-12T19:46:03.453Z,72.91
2019-02-12T19:48:35.000Z,72.76
2019-02-12T19:51:06.699Z,72.76
2019-02-12T19:53:38.392Z,72.63
2019-02-12T19:56:10.013Z,73.04
2019-02-12T19:58:41.870Z,73.16
2019-02-12T20:01:13.768Z,73.16
2019-02-12T20:03:45.132Z,72.75
2019-02-12T20:06:16.832Z,72.81
2019-02-12T20:08:48.327Z,73.00
2019-02-12T20:11:19.965Z,72.89
2019-02-12T20:13:51.131Z,72.89
2019-02-12T20:16:22.794Z,73.38
2019-02-12T20:18:54.026Z,73.03
2019-02-12T20:21:25.445Z,73.99
2019-02-12T20:23:56.727Z,74.35
2019-02-12T20:26:28.108Z,73.67
2019-02-12T20:28:59.626Z,73.31
2019-02-12T20:31:31.957Z,73.60
2019-02-12T20:34:03.589Z,74.56
2019-02-12T20:36:36.587Z,74.52
2019-02-12T20:39:08.412Z,74.52
2019-02-12T20:41:40.226Z,74.54
2019-02-12T20:44:11.909Z,74.54
2019-02-12T20:46:43.599Z,74.90
2019-02-12T20:49:15.163Z,74.80
2019-02-12T20:51:46.458Z,74.63
2019-02-12T20:54:18.505Z,74.92
2019-02-12T20:56:49.975Z,75.47
2019-02-12T20:59:24.163Z,75.49
2019-02-12T21:01:55.584Z,75.40
2019-02-12T21:04:27.277Z,75.35
2019-02-12T21:06:59.005Z,75.58
2019-02-12T21:09:30.824Z,75.65
2019-02-12T21:12:02.601Z,75.42
2019-02-12T21:14:35.470Z,75.53
2019-02-12T21:17:07.077Z,75.43
2019-02-12T21:19:38.633Z,75.75
2019-02-12T21:22:11.103Z,76.18
2019-02-12T21:24:42.538Z,76.63
2019-02-12T21:27:14.088Z,76.21
2019-02-12T21:29:45.244Z,76.43
2019-02-12T21:32:16.840Z,76.08
2019-02-12T21:34:48.290Z,76.21
2019-02-12T21:37:20.410Z,75.96
2019-02-12T21:39:51.928Z,75.98
2019-02-12T21:42:23.335Z,76.19
2019-02-12T21:44:54.821Z,76.40
2019-02-12T21:47:26.518Z,77.62
2019-02-12T21:49:57.682Z,76.65
2019-02-12T21:52:29.219Z,76.99
2019-02-12T21:55:00.576Z,77.16
2019-02-12T21:57:32.325Z,76.84
2019-02-12T22:00:04.970Z,77.86
2019-02-12T22:02:37.985Z,77.60
2019-02-12T22:05:10.450Z,76.79
2019-02-12T22:07:43.085Z,77.10
2019-02-12T22:10:17.379Z,77.12
2019-02-12T22:12:50.041Z,77.22
2019-02-12T22:15:21.501Z,77.22
2019-02-12T22:17:53.382Z,77.98
2019-02-12T22:20:24.734Z,77.80
2019-02-12T22:22:56.250Z,77.87
2019-02-12T22:25:28.070Z,78.00
2019-02-12T22:27:59.899Z,78.00
2019-02-12T22:30:31.864Z,78.00
2019-02-12T22:33:03.277Z,78.54
2019-02-12T22:35:34.579Z,78.45
2019-02-12T22:38:06.326Z,78.47
2019-02-12T22:40:37.674Z,78.47
2019-02-12T22:43:09.113Z,78.14
2019-02-12T22:45:41.468Z,78.66
2019-02-12T22:48:12.813Z,78.66
2019-02-12T22:50:44.333Z,78.53
2019-02-12T22:53:15.925Z,78.56
2019-02-12T22:55:47.191Z,78.91
2019-02-12T22:58:19.068Z,78.91
2019-02-12T23:01:06.303Z,78.90
2019-02-12T23:03:38.982Z,78.90
2019-02-12T23:06:10.540Z,79.57
2019-02-12T23:08:42.284Z,79.43
2019-02-12T23:11:13.455Z,79.43
2019-02-12T23:13:45.113Z,79.71
2019-02-12T23:16:16.298Z,79.89
2019-02-12T23:18:47.723Z,79.89
2019-02-12T23:21:19.419Z,79.56
2019-02-12T23:23:51.327Z,80.01
2019-02-12T23:26:22.934Z,80.03
2019-02-12T23:28:54.961Z,80.03
2019-02-12T23:31:26.412Z,79.75
2019-02-12T23:33:58.017Z,79.80
2019-02-12T23:36:29.381Z,79.88
2019-02-12T23:39:00.874Z,79.88
2019-02-12T23:41:33.686Z,80.40
2019-02-12T23:44:05.221Z,80.39
2019-02-12T23:46:36.633Z,81.82
2019-02-12T23:49:08.165Z,80.87
2019-02-12T23:51:40.511Z,80.87
2019-02-12T23:54:12.035Z,79.99
2019-02-12T23:56:43.489Z,79.85
2019-02-12T23:59:15.027Z,78.78
